Time;durP1;ratioP1;P1;durP2;ratioP2;P2;SDS_P1;SDS_P2;PMS_P1;PMS_P2;Temp;Humidity;BMP_temperature;BMP_pressure;BME280_temperature;BME280_humidity;BME280_pressure;Samples;Min_cycle;Max_cycle;Signal;HPM_P1;HPM_P2
2022/08/23 00:01:33;;;;;;;8.27;7.47;;;;;;;;;;5082549;28;24636;-48
2022/08/23 00:04:04;;;;;;;8.47;7.80;;;;;;;;;;5086560;28;24483;-48
2022/08/23 00:06:29;;;;;;;7.90;7.30;;;;;;;;;;5088568;28;24429;-48
2022/08/23 00:08:54;;;;;;;8.70;8.10;;;;;;;;;;5084887;28;24418;-49
2022/08/23 00:11:32;;;;;;;9.10;8.40;;;;;;;;;;5081525;28;24422;-49
2022/08/23 00:13:58;;;;;;;8.90;8.20;;;;;;;;;;5085251;28;24953;-50
2022/08/23 00:16:23;;;;;;;8.95;8.25;;;;;;;;;;5085389;28;24521;-47
2022/08/23 00:18:48;;;;;;;8.70;8.00;;;;;;;;;;5079919;28;24529;-48
2022/08/23 00:21:14;;;;;;;9.38;8.55;;;;;;;;;;5087118;28;24975;-48
2022/08/23 00:23:39;;;;;;;9.83;9.03;;;;;;;;;;5076595;28;24453;-48
2022/08/23 00:26:04;;;;;;;10.37;9.20;;;;;;;;;;5064848;28;24971;-49
2022/08/23 00:28:30;;;;;;;9.32;8.55;;;;;;;;;;5064948;28;24985;-49
2022/08/23 00:30:55;;;;;;;9.43;8.53;;;;;;;;;;5066913;28;24446;-49
2022/08/23 00:33:20;;;;;;;9.70;8.90;;;;;;;;;;5065236;28;24465;-48
2022/08/23 00:35:45;;;;;;;9.50;8.70;;;;;;;;;;5069730;28;24426;-49
2022/08/23 00:38:11;;;;;;;8.90;8.20;;;;;;;;;;5072161;28;24417;-50
2022/08/23 00:40:36;;;;;;;10.15;9.25;;;;;;;;;;5064711;28;24518;-49
2022/08/23 00:48:39;;;;;;;9.40;8.70;;;;;;;;;;5063484;28;24525;-48
2022/08/23 00:51:34;;;;;;;10.17;9.30;;;;;;;;;;5067783;28;24425;-49
2022/08/23 00:54:02;;;;;;;10.40;9.45;;;;;;;;;;5046485;28;24997;-49
2022/08/23 00:56:29;;;;;;;9.77;8.93;;;;;;;;;;5063237;28;25047;-48
2022/08/23 00:58:55;;;;;;;8.75;8.15;;;;;;;;;;5062496;28;24430;-49
2022/08/23 01:01:20;;;;;;;9.93;9.13;;;;;;;;;;5063928;28;24430;-48
2022/08/23 01:03:50;;;;;;;9.57;8.77;;;;;;;;;;5065574;28;24419;-48
2022/08/23 01:06:18;;;;;;;9.80;9.07;;;;;;;;;;5064345;28;24415;-47
2022/08/23 01:08:44;;;;;;;9.23;8.53;;;;;;;;;;5064459;28;24438;-48
2022/08/23 01:11:12;;;;;;;9.70;9.00;;;;;;;;;;5064574;28;24519;-48
2022/08/23 01:13:41;;;;;;;9.32;8.63;;;;;;;;;;5048872;28;24433;-48
2022/08/23 01:16:08;;;;;;;9.85;8.95;;;;;;;;;;5072969;28;24415;-48
2022/08/23 01:18:34;;;;;;;10.35;9.45;;;;;;;;;;5064569;28;24971;-49
2022/08/23 01:21:06;;;;;;;9.50;8.70;;;;;;;;;;5062253;28;24418;-48
2022/08/23 01:23:39;;;;;;;9.60;8.90;;;;;;;;;;5072894;28;25049;-47
2022/08/23 01:26:04;;;;;;;9.75;8.95;;;;;;;;;;5094335;28;24425;-49
2022/08/23 01:28:30;;;;;;;9.50;8.70;;;;;;;;;;5082462;28;24441;-48
2022/08/23 01:30:55;;;;;;;10.05;9.25;;;;;;;;;;5082045;28;25057;-49
2022/08/23 01:33:21;;;;;;;9.63;8.93;;;;;;;;;;5083911;28;25013;-49
2022/08/23 01:35:47;;;;;;;10.27;9.47;;;;;;;;;;5083057;28;24418;-48
2022/08/23 01:38:13;;;;;;;10.13;9.23;;;;;;;;;;5084085;28;25167;-49
2022/08/23 01:40:38;;;;;;;10.35;9.45;;;;;;;;;;5094887;28;24509;-49
2022/08/23 01:43:05;;;;;;;10.30;9.50;;;;;;;;;;5087669;28;24520;-49
2022/08/23 01:45:30;;;;;;;9.50;8.60;;;;;;;;;;5085497;28;24505;-48
2022/08/23 01:47:55;;;;;;;10.60;9.70;;;;;;;;;;5091705;28;24563;-49
2022/08/23 01:50:20;;;;;;;9.97;9.20;;;;;;;;;;5076459;28;24503;-49
2022/08/23 01:52:46;;;;;;;9.97;9.17;;;;;;;;;;5088237;28;24413;-49
2022/08/23 01:55:11;;;;;;;9.47;8.67;;;;;;;;;;5089544;28;24449;-48
2022/08/23 01:57:36;;;;;;;10.20;9.40;;;;;;;;;;5083330;28;24406;-48
2022/08/23 02:00:03;;;;;;;9.37;8.60;;;;;;;;;;5084939;28;24433;-48
2022/08/23 02:02:28;;;;;;;10.43;9.52;;;;;;;;;;5084040;28;24548;-48
2022/08/23 02:04:54;;;;;;;9.33;8.53;;;;;;;;;;5089039;28;24512;-49
2022/08/23 02:07:19;;;;;;;9.53;8.73;;;;;;;;;;5085783;28;24414;-49
2022/08/23 02:09:44;;;;;;;9.43;8.63;;;;;;;;;;5088228;28;24466;-49
2022/08/23 02:12:10;;;;;;;9.10;8.40;;;;;;;;;;5089452;28;24461;-48
2022/08/23 02:14:36;;;;;;;9.10;8.40;;;;;;;;;;5088257;28;24973;-48
2022/08/23 02:17:02;;;;;;;9.90;9.18;;;;;;;;;;5089878;28;24410;-48
2022/08/23 02:19:27;;;;;;;9.63;8.83;;;;;;;;;;5088667;28;24520;-48
2022/08/23 02:21:52;;;;;;;9.80;9.00;;;;;;;;;;5085983;28;24411;-48
2022/08/23 02:24:21;;;;;;;10.37;9.47;;;;;;;;;;5086181;28;24444;-48
2022/08/23 02:26:48;;;;;;;10.00;9.20;;;;;;;;;;5086297;28;24429;-48
2022/08/23 02:29:14;;;;;;;9.65;8.85;;;;;;;;;;5089934;28;24783;-48
2022/08/23 02:31:39;;;;;;;9.77;8.88;;;;;;;;;;5087758;28;24433;-48
2022/08/23 02:34:04;;;;;;;9.40;8.60;;;;;;;;;;5087886;28;24878;-48
2022/08/23 02:36:30;;;;;;;10.00;9.20;;;;;;;;;;5084859;28;24511;-48
2022/08/23 02:38:55;;;;;;;9.43;8.67;;;;;;;;;;5084436;28;24488;-48
2022/08/23 02:41:21;;;;;;;10.13;9.23;;;;;;;;;;5084677;28;24916;-49
2022/08/23 02:43:46;;;;;;;8.77;8.07;;;;;;;;;;5085358;28;25070;-49
2022/08/23 02:46:11;;;;;;;9.50;8.80;;;;;;;;;;5087326;28;24428;-48
2022/08/23 02:48:36;;;;;;;10.17;9.27;;;;;;;;;;5087571;28;25032;-50
2022/08/23 02:51:03;;;;;;;10.10;9.20;;;;;;;;;;5081778;28;24619;-49
2022/08/23 02:53:29;;;;;;;9.00;8.30;;;;;;;;;;5086111;28;24422;-48
2022/08/23 02:55:54;;;;;;;9.30;8.60;;;;;;;;;;5085193;28;24429;-48
2022/08/23 02:58:19;;;;;;;10.03;9.23;;;;;;;;;;5085270;28;24437;-48
2022/08/23 03:00:45;;;;;;;9.57;8.87;;;;;;;;;;5084904;28;24417;-48
2022/08/23 03:03:11;;;;;;;9.50;8.70;;;;;;;;;;5087155;28;24426;-48
2022/08/23 03:05:36;;;;;;;10.47;9.60;;;;;;;;;;5084070;28;24421;-48
2022/08/23 03:08:01;;;;;;;9.45;8.55;;;;;;;;;;5090186;28;24525;-48
2022/08/23 03:10:27;;;;;;;9.50;8.73;;;;;;;;;;5093600;28;24457;-48
2022/08/23 03:12:52;;;;;;;10.00;9.20;;;;;;;;;;5093346;28;24446;-49
2022/08/23 03:15:17;;;;;;;9.73;9.02;;;;;;;;;;5082145;28;24468;-48
2022/08/23 03:17:42;;;;;;;9.30;8.60;;;;;;;;;;5086393;28;24430;-48
2022/08/23 03:20:08;;;;;;;9.32;8.63;;;;;;;;;;5082902;28;25067;-48
2022/08/23 03:22:33;;;;;;;8.80;8.10;;;;;;;;;;5086144;28;24424;-48
2022/08/23 03:24:58;;;;;;;9.73;8.83;;;;;;;;;;5069026;28;24833;-49
2022/08/23 03:27:24;;;;;;;9.20;8.23;;;;;;;;;;5069110;28;24493;-49
2022/08/23 03:29:49;;;;;;;9.50;8.70;;;;;;;;;;5066302;28;24508;-48
2022/08/23 03:32:14;;;;;;;9.60;8.73;;;;;;;;;;5068381;28;24418;-48
2022/08/23 03:34:39;;;;;;;9.57;8.77;;;;;;;;;;5059884;28;25064;-48
2022/08/23 03:37:05;;;;;;;10.07;9.27;;;;;;;;;;5064923;28;24506;-48
2022/08/23 03:39:30;;;;;;;9.57;8.87;;;;;;;;;;5047458;28;24468;-49
2022/08/23 03:41:55;;;;;;;10.20;9.40;;;;;;;;;;5062502;28;24577;-48
2022/08/23 03:44:20;;;;;;;8.93;8.13;;;;;;;;;;5059552;28;24422;-48
2022/08/23 03:46:45;;;;;;;9.10;8.40;;;;;;;;;;5061993;28;24949;-48
2022/08/23 03:49:10;;;;;;;9.10;8.50;;;;;;;;;;5064524;28;25241;-48
2022/08/23 03:51:36;;;;;;;8.70;8.00;;;;;;;;;;5066478;28;24588;-49
2022/08/23 03:54:02;;;;;;;9.13;8.43;;;;;;;;;;5060605;28;24430;-49
2022/08/23 03:56:34;;;;;;;9.60;8.80;;;;;;;;;;5064459;28;24440;-48
2022/08/23 03:59:01;;;;;;;9.25;8.45;;;;;;;;;;5063784;28;24429;-48
2022/08/23 04:01:27;;;;;;;9.23;8.52;;;;;;;;;;5068903;28;24461;-48
2022/08/23 04:03:52;;;;;;;8.63;8.00;;;;;;;;;;5061920;28;24450;-48
2022/08/23 04:06:17;;;;;;;8.05;7.43;;;;;;;;;;5065982;28;24464;-48
2022/08/23 04:08:43;;;;;;;9.27;8.57;;;;;;;;;;5062077;28;24841;-48
2022/08/23 04:11:10;;;;;;;8.43;7.82;;;;;;;;;;5069397;28;24997;-48
2022/08/23 04:13:35;;;;;;;8.50;7.70;;;;;;;;;;5064039;28;24467;-48
2022/08/23 04:16:02;;;;;;;8.40;7.80;;;;;;;;;;5069425;28;24465;-48
2022/08/23 04:18:29;;;;;;;8.10;7.50;;;;;;;;;;5062489;28;24994;-49
2022/08/23 04:20:54;;;;;;;8.45;7.65;;;;;;;;;;5064563;28;24411;-49
2022/08/23 04:23:19;;;;;;;8.23;7.63;;;;;;;;;;5065577;28;24433;-48
2022/08/23 04:25:44;;;;;;;9.48;8.68;;;;;;;;;;5071788;28;24465;-49
2022/08/23 04:28:10;;;;;;;7.97;7.37;;;;;;;;;;5064977;28;24975;-48
2022/08/23 04:30:35;;;;;;;8.17;7.47;;;;;;;;;;5063092;28;24945;-48
2022/08/23 04:33:00;;;;;;;8.52;7.70;;;;;;;;;;5069212;28;24448;-49
2022/08/23 04:35:25;;;;;;;8.15;7.45;;;;;;;;;;5072365;28;24468;-49
2022/08/23 04:37:51;;;;;;;8.20;7.60;;;;;;;;;;5062214;28;25069;-48
2022/08/23 04:43:01;;;;;;;8.48;7.78;;;;;;;;;;5063246;28;24494;-47
2022/08/23 04:45:26;;;;;;;8.30;7.60;;;;;;;;;;5063330;28;24513;-48
2022/08/23 04:47:51;;;;;;;8.43;7.73;;;;;;;;;;5063537;28;24419;-48
2022/08/23 04:50:16;;;;;;;8.82;8.02;;;;;;;;;;5063596;28;24464;-48
2022/08/23 04:52:42;;;;;;;7.80;7.20;;;;;;;;;;5059599;28;24468;-47
2022/08/23 04:55:07;;;;;;;8.65;7.95;;;;;;;;;;5062713;28;24422;-48
2022/08/23 04:57:32;;;;;;;8.53;7.90;;;;;;;;;;5062505;28;24433;-48
2022/08/23 04:59:57;;;;;;;8.30;7.60;;;;;;;;;;5060750;28;24519;-48
2022/08/23 05:02:22;;;;;;;8.10;7.40;;;;;;;;;;5063691;28;24788;-49
2022/08/23 05:04:47;;;;;;;8.40;7.80;;;;;;;;;;5063671;28;24419;-48
2022/08/23 05:07:14;;;;;;;9.15;8.35;;;;;;;;;;5060672;28;24427;-48
2022/08/23 05:09:39;;;;;;;8.18;7.57;;;;;;;;;;5066055;28;24411;-48
2022/08/23 05:12:05;;;;;;;8.70;7.90;;;;;;;;;;5064229;28;24481;-47
2022/08/23 05:14:30;;;;;;;9.00;8.30;;;;;;;;;;5064639;28;24486;-49
2022/08/23 05:16:55;;;;;;;8.70;8.00;;;;;;;;;;5062163;28;25056;-49
2022/08/23 05:19:21;;;;;;;8.50;7.80;;;;;;;;;;5056747;28;24516;-49
2022/08/23 05:21:46;;;;;;;8.23;7.63;;;;;;;;;;5066134;28;25034;-49
2022/08/23 05:24:11;;;;;;;8.30;7.70;;;;;;;;;;5077074;28;24987;-48
2022/08/23 05:26:36;;;;;;;9.03;8.33;;;;;;;;;;5088328;28;24507;-48
2022/08/23 05:29:02;;;;;;;8.30;7.70;;;;;;;;;;5087168;28;24951;-48
2022/08/23 05:31:29;;;;;;;8.43;7.72;;;;;;;;;;5087108;28;24409;-48
2022/08/23 05:33:54;;;;;;;8.40;7.70;;;;;;;;;;5070169;28;24740;-48
2022/08/23 05:36:20;;;;;;;8.80;8.00;;;;;;;;;;5067006;28;24999;-48
2022/08/23 05:38:46;;;;;;;9.18;8.38;;;;;;;;;;5066532;28;24418;-48
2022/08/23 05:41:11;;;;;;;8.80;8.00;;;;;;;;;;5082537;28;24394;-48
2022/08/23 05:43:36;;;;;;;8.60;7.80;;;;;;;;;;5089177;28;24771;-47
2022/08/23 05:46:03;;;;;;;8.70;8.00;;;;;;;;;;5086649;28;24477;-49
2022/08/23 05:48:29;;;;;;;7.80;7.10;;;;;;;;;;5084913;28;24867;-47
2022/08/23 05:50:54;;;;;;;8.80;7.90;;;;;;;;;;5087798;28;25007;-47
2022/08/23 05:53:19;;;;;;;8.50;7.80;;;;;;;;;;5083373;28;24414;-48
2022/08/23 05:55:44;;;;;;;9.02;8.23;;;;;;;;;;5089385;28;24533;-49
2022/08/23 05:58:10;;;;;;;8.97;8.17;;;;;;;;;;5086754;28;24890;-48
2022/08/23 06:00:35;;;;;;;8.23;7.53;;;;;;;;;;5086425;28;24521;-48
2022/08/23 06:03:00;;;;;;;8.20;7.40;;;;;;;;;;5086456;28;24522;-48
2022/08/23 06:05:25;;;;;;;9.20;8.40;;;;;;;;;;5089104;28;24418;-48
2022/08/23 06:07:51;;;;;;;9.53;8.53;;;;;;;;;;5084826;28;24968;-49
2022/08/23 06:10:19;;;;;;;9.67;8.77;;;;;;;;;;5088729;28;25036;-48
2022/08/23 06:12:44;;;;;;;9.57;8.70;;;;;;;;;;5087962;28;24515;-48
2022/08/23 06:15:09;;;;;;;9.32;8.43;;;;;;;;;;5084698;28;24838;-49
2022/08/23 06:17:34;;;;;;;8.50;7.70;;;;;;;;;;5080104;28;24421;-48
2022/08/23 06:19:59;;;;;;;9.80;8.80;;;;;;;;;;5087247;28;24584;-48
2022/08/23 06:22:25;;;;;;;9.93;8.93;;;;;;;;;;5086157;28;24818;-48
2022/08/23 06:24:50;;;;;;;8.63;7.82;;;;;;;;;;5069931;28;24411;-48
2022/08/23 06:27:15;;;;;;;9.40;8.60;;;;;;;;;;5067604;28;24411;-48
2022/08/23 06:29:40;;;;;;;9.50;8.60;;;;;;;;;;5068482;28;24395;-48
2022/08/23 06:32:06;;;;;;;10.27;9.27;;;;;;;;;;5068295;28;25147;-47
2022/08/23 06:34:33;;;;;;;10.50;9.50;;;;;;;;;;5067105;28;24411;-47
2022/08/23 06:37:09;;;;;;;9.77;8.88;;;;;;;;;;5066365;28;25163;-48
2022/08/23 06:39:35;;;;;;;9.10;8.20;;;;;;;;;;5068069;28;25250;-48
2022/08/23 06:42:26;;;;;;;10.70;9.68;;;;;;;;;;5068220;28;24445;-48
2022/08/23 06:44:51;;;;;;;9.18;8.27;;;;;;;;;;5064799;28;24546;-47
2022/08/23 06:47:16;;;;;;;12.40;8.90;;;;;;;;;;5068287;28;24402;-47
2022/08/23 06:49:41;;;;;;;9.70;8.80;;;;;;;;;;5068282;28;24440;-47
2022/08/23 06:52:08;;;;;;;9.85;8.95;;;;;;;;;;5068074;28;24402;-47
2022/08/23 06:54:34;;;;;;;9.77;8.82;;;;;;;;;;5070579;28;24509;-47
2022/08/23 06:57:00;;;;;;;9.40;8.60;;;;;;;;;;5065428;28;24812;-47
2022/08/23 06:59:26;;;;;;;9.60;8.60;;;;;;;;;;5068225;28;24944;-44
2022/08/23 07:01:56;;;;;;;10.00;9.10;;;;;;;;;;5067425;28;24522;-47
2022/08/23 07:04:23;;;;;;;9.45;8.55;;;;;;;;;;5067549;28;24406;-47
2022/08/23 07:06:48;;;;;;;10.57;9.25;;;;;;;;;;5067470;28;24448;-46
2022/08/23 07:09:14;;;;;;;9.30;8.50;;;;;;;;;;5067748;28;24399;-45
2022/08/23 07:11:40;;;;;;;9.50;8.60;;;;;;;;;;5067816;28;24936;-46
2022/08/23 07:14:06;;;;;;;9.33;8.53;;;;;;;;;;5067484;28;25226;-46
2022/08/23 07:16:33;;;;;;;9.65;8.73;;;;;;;;;;5067274;28;24489;-48
2022/08/23 07:18:58;;;;;;;10.40;9.40;;;;;;;;;;5067616;28;24480;-48
2022/08/23 07:21:23;;;;;;;10.10;9.10;;;;;;;;;;5067755;28;24390;-48
2022/08/23 07:23:48;;;;;;;9.63;8.80;;;;;;;;;;5075050;28;24986;-47
2022/08/23 07:26:15;;;;;;;9.02;8.18;;;;;;;;;;5086762;28;24410;-47
2022/08/23 07:28:40;;;;;;;10.95;9.80;;;;;;;;;;5087700;28;24398;-48
2022/08/23 07:31:11;;;;;;;9.63;8.73;;;;;;;;;;5072089;28;24414;-48
2022/08/23 07:33:37;;;;;;;10.10;9.20;;;;;;;;;;5085549;28;24422;-47
2022/08/23 07:36:02;;;;;;;10.20;9.30;;;;;;;;;;5085430;28;24445;-48
2022/08/23 07:38:28;;;;;;;10.60;9.32;;;;;;;;;;5086473;28;24468;-47
2022/08/23 07:40:53;;;;;;;11.30;10.20;;;;;;;;;;5087276;28;24479;-48
2022/08/23 07:43:18;;;;;;;9.75;8.85;;;;;;;;;;5087478;28;24492;-47
2022/08/23 07:45:43;;;;;;;10.25;9.25;;;;;;;;;;5087458;28;24402;-48
2022/08/23 07:48:09;;;;;;;9.70;8.80;;;;;;;;;;5087133;28;24392;-48
2022/08/23 07:50:34;;;;;;;9.80;8.80;;;;;;;;;;5087277;28;24740;-48
2022/08/23 07:53:02;;;;;;;12.00;10.80;;;;;;;;;;5086958;28;24501;-49
2022/08/23 07:55:27;;;;;;;10.70;9.60;;;;;;;;;;5085783;28;24422;-48
2022/08/23 07:57:52;;;;;;;10.57;9.57;;;;;;;;;;5087000;28;24417;-47
2022/08/23 08:00:17;;;;;;;10.00;9.10;;;;;;;;;;5087327;28;24587;-48
2022/08/23 08:02:43;;;;;;;11.40;10.30;;;;;;;;;;5086352;28;24970;-49
2022/08/23 08:05:08;;;;;;;10.33;9.43;;;;;;;;;;5068531;28;24441;-48
2022/08/23 08:07:33;;;;;;;10.83;9.83;;;;;;;;;;5086559;28;24481;-48
2022/08/23 08:09:58;;;;;;;10.20;9.20;;;;;;;;;;5086866;28;24498;-49
2022/08/23 08:12:23;;;;;;;10.50;9.50;;;;;;;;;;5087086;28;24397;-48
2022/08/23 08:14:49;;;;;;;11.67;10.60;;;;;;;;;;5084877;28;24426;-47
2022/08/23 08:17:16;;;;;;;10.68;9.68;;;;;;;;;;5087077;28;24402;-48
2022/08/23 08:19:41;;;;;;;11.73;10.52;;;;;;;;;;5087185;28;24560;-48
2022/08/23 08:22:07;;;;;;;11.25;10.15;;;;;;;;;;5086393;28;24490;-49
2022/08/23 08:24:32;;;;;;;11.23;10.03;;;;;;;;;;5087003;28;25015;-47
2022/08/23 08:26:57;;;;;;;9.85;8.95;;;;;;;;;;5086340;28;24991;-48
2022/08/23 08:29:22;;;;;;;11.17;10.07;;;;;;;;;;5086742;28;25005;-48
2022/08/23 08:31:49;;;;;;;11.57;10.37;;;;;;;;;;5086626;28;24390;-47
2022/08/23 08:34:15;;;;;;;10.65;9.60;;;;;;;;;;5087269;28;24409;-48
2022/08/23 08:36:41;;;;;;;10.70;9.77;;;;;;;;;;5084889;28;24436;-46
2022/08/23 08:39:09;;;;;;;12.63;10.30;;;;;;;;;;5086017;28;24410;-48
2022/08/23 08:41:47;;;;;;;11.80;10.80;;;;;;;;;;5086684;28;24459;-48
2022/08/23 08:44:22;;;;;;;12.25;11.05;;;;;;;;;;5086599;28;24397;-47
2022/08/23 08:46:49;;;;;;;11.73;10.60;;;;;;;;;;5086290;28;24397;-48
2022/08/23 08:49:17;;;;;;;11.00;10.05;;;;;;;;;;5086247;28;24856;-48
2022/08/23 08:52:14;;;;;;;13.63;12.33;;;;;;;;;;5086309;28;24402;-47
2022/08/23 08:54:40;;;;;;;11.90;10.70;;;;;;;;;;5039527;28;24739;-48
2022/08/23 08:57:06;;;;;;;13.38;12.07;;;;;;;;;;5085739;28;24516;-47
2022/08/23 08:59:50;;;;;;;12.40;11.30;;;;;;;;;;5086729;28;24469;-47
2022/08/23 09:02:17;;;;;;;13.30;12.00;;;;;;;;;;5086356;28;24939;-47
2022/08/23 09:04:42;;;;;;;13.70;12.30;;;;;;;;;;5085679;28;24426;-46
2022/08/23 09:07:15;;;;;;;13.47;12.10;;;;;;;;;;5086048;28;24661;-47
2022/08/23 09:09:48;;;;;;;13.10;11.80;;;;;;;;;;5086348;28;24386;-48
2022/08/23 09:12:29;;;;;;;15.10;13.60;;;;;;;;;;5086277;28;24397;-48
2022/08/23 09:15:24;;;;;;;14.13;12.63;;;;;;;;;;5083081;28;24576;-48
2022/08/23 09:17:51;;;;;;;13.13;11.82;;;;;;;;;;5057869;28;24967;-48
2022/08/23 09:20:19;;;;;;;13.52;12.25;;;;;;;;;;5065841;28;24464;-47
2022/08/23 09:22:46;;;;;;;13.05;11.85;;;;;;;;;;5086331;28;24493;-49
2022/08/23 09:25:12;;;;;;;13.55;12.25;;;;;;;;;;5085908;28;24423;-48
2022/08/23 09:27:38;;;;;;;12.60;11.40;;;;;;;;;;5080519;28;24406;-47
2022/08/23 09:30:04;;;;;;;12.10;10.90;;;;;;;;;;5083103;28;24418;-48
2022/08/23 09:32:32;;;;;;;13.80;12.40;;;;;;;;;;5085752;28;24398;-46
2022/08/23 09:35:06;;;;;;;12.18;11.07;;;;;;;;;;5085440;28;24572;-47
2022/08/23 09:37:44;;;;;;;11.65;10.65;;;;;;;;;;5086086;28;24928;-47
2022/08/23 09:40:12;;;;;;;10.80;9.77;;;;;;;;;;5085479;28;25095;-48
2022/08/23 09:42:38;;;;;;;13.70;12.40;;;;;;;;;;5084441;28;24523;-48
2022/08/23 09:45:05;;;;;;;11.10;10.10;;;;;;;;;;5086284;28;24928;-50
2022/08/23 09:47:35;;;;;;;11.40;10.40;;;;;;;;;;5085810;28;24756;-47
2022/08/23 09:50:09;;;;;;;10.40;9.60;;;;;;;;;;5086187;28;24483;-47
2022/08/23 09:52:36;;;;;;;12.15;11.05;;;;;;;;;;5085797;28;24736;-48
2022/08/23 09:55:08;;;;;;;12.60;11.40;;;;;;;;;;5086101;28;24386;-47
2022/08/23 09:57:33;;;;;;;10.18;9.27;;;;;;;;;;5086026;28;24424;-47
2022/08/23 10:00:21;;;;;;;10.45;9.48;;;;;;;;;;5085310;28;24426;-47
2022/08/23 10:02:47;;;;;;;11.00;10.10;;;;;;;;;;5088221;28;25031;-48
2022/08/23 10:05:14;;;;;;;11.30;9.73;;;;;;;;;;5089456;28;24559;-48
2022/08/23 10:07:41;;;;;;;10.18;9.27;;;;;;;;;;5089213;28;24481;-47
2022/08/23 10:10:19;;;;;;;10.75;9.75;;;;;;;;;;5088726;28;24410;-47
2022/08/23 10:12:44;;;;;;;13.27;12.07;;;;;;;;;;5087394;28;24956;-47
2022/08/23 10:15:10;;;;;;;12.32;11.32;;;;;;;;;;5085820;28;24475;-47
2022/08/23 10:17:39;;;;;;;11.80;10.80;;;;;;;;;;5087986;28;24422;-47
2022/08/23 10:20:22;;;;;;;12.15;11.05;;;;;;;;;;5089039;28;24402;-47
2022/08/23 10:22:51;;;;;;;10.95;10.05;;;;;;;;;;5088799;28;24397;-47
2022/08/23 10:25:16;;;;;;;11.50;10.40;;;;;;;;;;5085252;28;24571;-47
2022/08/23 10:31:08;;;;;;;11.00;10.10;;;;;;;;;;5089353;28;24401;-48
2022/08/23 10:33:55;;;;;;;11.40;10.38;;;;;;;;;;5087208;28;25087;-47
2022/08/23 10:36:41;;;;;;;11.80;10.80;;;;;;;;;;5088725;28;24391;-47
2022/08/23 10:39:14;;;;;;;11.43;10.43;;;;;;;;;;5046559;28;24433;-47
2022/08/23 10:42:02;;;;;;;10.30;9.50;;;;;;;;;;5088640;28;24687;-46
2022/08/23 10:44:36;;;;;;;9.70;8.90;;;;;;;;;;5084048;28;24458;-47
2022/08/23 10:47:15;;;;;;;9.90;9.10;;;;;;;;;;5086347;28;24414;-47
2022/08/23 10:49:41;;;;;;;10.10;9.20;;;;;;;;;;5088461;28;24391;-47
2022/08/23 10:52:11;;;;;;;10.30;9.40;;;;;;;;;;5087970;28;24440;-47
2022/08/23 10:54:47;;;;;;;9.23;8.50;;;;;;;;;;5088333;28;24394;-47
2022/08/23 10:57:14;;;;;;;9.30;8.60;;;;;;;;;;5087361;28;24418;-47
2022/08/23 10:59:40;;;;;;;9.90;9.10;;;;;;;;;;5088325;28;24428;-47
2022/08/23 11:02:23;;;;;;;9.40;8.60;;;;;;;;;;5088113;28;24394;-47
2022/08/23 11:05:05;;;;;;;8.23;7.50;;;;;;;;;;5087965;28;24375;-47
2022/08/23 11:07:40;;;;;;;8.95;8.15;;;;;;;;;;5088364;28;24386;-47
2022/08/23 11:10:08;;;;;;;8.50;7.77;;;;;;;;;;5085624;28;24479;-47
2022/08/23 11:12:36;;;;;;;8.60;7.80;;;;;;;;;;5087524;28;24418;-47
2022/08/23 11:15:09;;;;;;;8.90;8.00;;;;;;;;;;5086270;28;24430;-46
2022/08/23 11:17:34;;;;;;;7.80;7.10;;;;;;;;;;5087972;28;24966;-47
2022/08/23 11:20:01;;;;;;;8.00;7.38;;;;;;;;;;5088191;28;24971;-48
2022/08/23 11:22:28;;;;;;;7.90;7.20;;;;;;;;;;5086695;28;24444;-47
2022/08/23 11:25:00;;;;;;;7.57;6.75;;;;;;;;;;5082101;28;24772;-48
2022/08/23 11:27:46;;;;;;;7.40;6.80;;;;;;;;;;5066561;28;24390;-47
2022/08/23 11:30:30;;;;;;;7.47;6.78;;;;;;;;;;5066920;28;24450;-48
2022/08/23 11:32:56;;;;;;;8.40;7.60;;;;;;;;;;5067358;28;24958;-47
2022/08/23 11:35:39;;;;;;;7.20;6.70;;;;;;;;;;5067352;28;24482;-47
2022/08/23 11:38:05;;;;;;;7.55;6.90;;;;;;;;;;5066983;28;24401;-47
2022/08/23 11:40:39;;;;;;;7.10;6.50;;;;;;;;;;5067648;28;25133;-47
2022/08/23 11:43:08;;;;;;;8.00;7.28;;;;;;;;;;5079147;28;24475;-47
2022/08/23 11:45:36;;;;;;;7.80;7.10;;;;;;;;;;5087800;28;24388;-47
2022/08/23 11:48:18;;;;;;;7.80;7.10;;;;;;;;;;5087139;28;24382;-47
2022/08/23 11:50:51;;;;;;;7.97;7.28;;;;;;;;;;5087326;28;24402;-47
2022/08/23 11:53:29;;;;;;;7.65;7.00;;;;;;;;;;5087326;28;24454;-47
2022/08/23 11:56:03;;;;;;;8.38;7.57;;;;;;;;;;5087464;28;25276;-47
2022/08/23 11:58:45;;;;;;;8.43;7.72;;;;;;;;;;5087032;28;24437;-45
2022/08/23 12:01:13;;;;;;;8.90;8.13;;;;;;;;;;5086699;28;24934;-47
2022/08/23 12:03:51;;;;;;;8.07;7.47;;;;;;;;;;5085205;28;24516;-44
2022/08/23 12:06:34;;;;;;;8.33;7.73;;;;;;;;;;5087333;28;24899;-46
2022/08/23 12:09:02;;;;;;;9.07;8.27;;;;;;;;;;5086858;28;24394;-46
2022/08/23 12:11:46;;;;;;;7.80;7.20;;;;;;;;;;5086764;28;24990;-47
2022/08/23 12:14:29;;;;;;;8.35;7.65;;;;;;;;;;5086772;28;24802;-47
2022/08/23 12:16:54;;;;;;;8.25;7.55;;;;;;;;;;5086854;28;24390;-48
2022/08/23 12:19:32;;;;;;;8.40;7.60;;;;;;;;;;5086672;28;24974;-48
2022/08/23 12:22:04;;;;;;;9.45;8.57;;;;;;;;;;5086603;28;24514;-47
2022/08/23 12:24:31;;;;;;;9.20;8.40;;;;;;;;;;5070969;28;24560;-47
2022/08/23 12:27:15;;;;;;;9.30;8.40;;;;;;;;;;5066725;28;24939;-47
2022/08/23 12:29:45;;;;;;;7.90;7.30;;;;;;;;;;5066676;28;24450;-46
2022/08/23 12:32:12;;;;;;;8.40;7.60;;;;;;;;;;5066328;28;24497;-47
2022/08/23 12:34:56;;;;;;;8.10;7.50;;;;;;;;;;5066735;28;24406;-48
2022/08/23 12:37:21;;;;;;;9.05;7.85;;;;;;;;;;5066312;28;24395;-48
2022/08/23 12:39:51;;;;;;;8.60;7.90;;;;;;;;;;5065868;28;24416;-48
2022/08/23 12:42:27;;;;;;;10.10;9.20;;;;;;;;;;5066607;28;24406;-47
2022/08/23 12:44:59;;;;;;;10.90;10.00;;;;;;;;;;5065061;28;24614;-48
2022/08/23 12:47:24;;;;;;;10.53;9.70;;;;;;;;;;5067585;28;24824;-46
2022/08/23 12:49:53;;;;;;;10.43;9.43;;;;;;;;;;5066291;28;24426;-48
2022/08/23 12:52:22;;;;;;;9.60;8.80;;;;;;;;;;5066426;28;24410;-47
2022/08/23 12:54:49;;;;;;;8.98;8.23;;;;;;;;;;5066411;28;24398;-47
2022/08/23 12:57:17;;;;;;;8.40;7.80;;;;;;;;;;5065951;28;24403;-47
2022/08/23 12:59:58;;;;;;;8.43;7.63;;;;;;;;;;5066164;28;24510;-47
2022/08/23 13:02:26;;;;;;;8.52;7.88;;;;;;;;;;5065744;28;24434;-47
2022/08/23 13:04:53;;;;;;;8.82;8.13;;;;;;;;;;5066646;28;24490;-47
2022/08/23 13:07:20;;;;;;;7.65;7.05;;;;;;;;;;5065745;28;24399;-48
2022/08/23 13:09:45;;;;;;;7.90;7.20;;;;;;;;;;5066302;28;24840;-47
2022/08/23 13:12:11;;;;;;;7.07;6.57;;;;;;;;;;5066244;28;24486;-47
2022/08/23 13:14:40;;;;;;;8.00;7.40;;;;;;;;;;5066311;28;24497;-46
2022/08/23 13:17:30;;;;;;;8.27;6.75;;;;;;;;;;5066173;28;24434;-47
2022/08/23 13:20:01;;;;;;;7.97;7.18;;;;;;;;;;5066023;28;24410;-47
2022/08/23 13:22:27;;;;;;;7.38;6.68;;;;;;;;;;5062085;28;24415;-46
2022/08/23 13:25:08;;;;;;;7.75;7.15;;;;;;;;;;5080222;28;24448;-46
2022/08/23 13:27:35;;;;;;;7.97;7.18;;;;;;;;;;5082494;28;24432;-47
2022/08/23 13:30:18;;;;;;;7.90;7.30;;;;;;;;;;5077256;28;24423;-49
2022/08/23 13:32:46;;;;;;;8.27;7.68;;;;;;;;;;5082197;28;24425;-46
2022/08/23 13:35:42;;;;;;;7.82;7.13;;;;;;;;;;5087942;28;24528;-46
2022/08/23 13:38:16;;;;;;;7.90;7.30;;;;;;;;;;5068514;28;24426;-46
2022/08/23 13:40:59;;;;;;;7.90;7.20;;;;;;;;;;5085891;28;24410;-46
2022/08/23 13:43:30;;;;;;;7.80;7.20;;;;;;;;;;5078402;28;24441;-46
2022/08/23 13:45:56;;;;;;;7.70;7.10;;;;;;;;;;5084836;28;25289;-47
2022/08/23 13:48:23;;;;;;;8.18;7.55;;;;;;;;;;5085941;28;24990;-48
2022/08/23 13:50:49;;;;;;;7.18;6.68;;;;;;;;;;5083499;28;24989;-48
2022/08/23 13:53:14;;;;;;;7.50;6.80;;;;;;;;;;5085746;28;24422;-48
2022/08/23 13:55:41;;;;;;;7.57;6.97;;;;;;;;;;5089099;28;24390;-48
2022/08/23 13:58:08;;;;;;;7.82;7.15;;;;;;;;;;5088495;28;24560;-49
2022/08/23 14:00:34;;;;;;;7.47;6.88;;;;;;;;;;5089793;28;24445;-48
2022/08/23 14:02:59;;;;;;;7.70;7.10;;;;;;;;;;5089824;28;24821;-48
2022/08/23 14:05:24;;;;;;;8.20;7.40;;;;;;;;;;5089411;28;24374;-48
2022/08/23 14:07:51;;;;;;;8.53;7.83;;;;;;;;;;5088257;28;25011;-48
2022/08/23 14:10:17;;;;;;;7.18;6.57;;;;;;;;;;5089474;28;24409;-47
2022/08/23 14:12:43;;;;;;;8.25;7.60;;;;;;;;;;5089469;28;24394;-48
2022/08/23 14:15:09;;;;;;;8.65;7.75;;;;;;;;;;5089002;28;24413;-47
2022/08/23 14:17:38;;;;;;;7.85;7.05;;;;;;;;;;5089166;28;24939;-46
2022/08/23 14:20:05;;;;;;;7.30;6.70;;;;;;;;;;5089275;28;24549;-47
2022/08/23 14:22:30;;;;;;;7.15;6.45;;;;;;;;;;5087784;28;24792;-48
2022/08/23 14:24:55;;;;;;;7.60;6.90;;;;;;;;;;5088865;28;24982;-46
2022/08/23 14:27:21;;;;;;;7.93;7.25;;;;;;;;;;5088902;28;24382;-46
2022/08/23 14:29:46;;;;;;;7.00;6.50;;;;;;;;;;5089128;28;24398;-45
2022/08/23 14:32:11;;;;;;;6.63;6.03;;;;;;;;;;5087760;28;24414;-46
2022/08/23 14:34:36;;;;;;;7.00;6.50;;;;;;;;;;5089153;28;24447;-47
2022/08/23 14:37:01;;;;;;;6.70;6.20;;;;;;;;;;5089278;28;25272;-47
2022/08/23 14:39:27;;;;;;;7.07;6.47;;;;;;;;;;5088452;28;24414;-46
2022/08/23 14:41:52;;;;;;;7.00;6.40;;;;;;;;;;5087805;28;24425;-47
2022/08/23 14:44:17;;;;;;;7.40;6.70;;;;;;;;;;5088698;28;24948;-47
2022/08/23 14:46:43;;;;;;;6.50;6.00;;;;;;;;;;5088283;28;24378;-47
2022/08/23 14:49:09;;;;;;;6.93;6.43;;;;;;;;;;5086599;28;24407;-47
2022/08/23 14:51:36;;;;;;;6.40;5.90;;;;;;;;;;5087570;28;24547;-47
2022/08/23 14:54:02;;;;;;;6.30;5.80;;;;;;;;;;5088628;28;24398;-47
2022/08/23 14:56:27;;;;;;;7.35;6.65;;;;;;;;;;5088067;28;24392;-47